Archival Weather

Chicago O'Hare International

Chicago, Illinois (KORD)

Report from: Sunday, December 25, 2022 8:51 AM CST
Current time: Friday, June 14, 2024 7:06 AM CDT

Current weather – Weather history – Daily summaries
Weather forecast

Temperature-15.6°C (3.9°F)
Wind chill-24.1°C (-11.3°F)
Dew point-21.1°C (-6.0°F)
Winds 9 kts (4.6 m/s, 10.4 mph) West (280°)
Visibility10 mi. (16.1 km)
Clouds Few clouds 3,000 ft. (914 m)
Few clouds 20,000 ft. (6,096 m)
Altimeter30.05 in.Hg (1018 mB)
Relative humidity63 %
Density altitude-4,063 ft. (-1,238 m)
Sea-level pressure101.9 kPa (1019 mB, 30.10 in.Hg)
Remarks System requires maintenance
Automated weather observing station with precipitation discriminator
Pressure rising more slowly
Flight conditions Visual Meteorological Conditions
Raw dataKORD 251451Z 28009KT 10SM FEW030 FEW200 M16/M21 A3005 RMK AO2 SLP193 T11561211 51013 $
An error has occurred. This application may no longer respond until reloaded. Reload 🗙